sensor_id;sensor_type;location;lat;lon;timestamp;P1;durP1;ratioP1;P2;durP2;ratioP2
7941;SDS011;4016;50.758;7.150;2024-02-26T00:01:43;3.03;;;2.37;;
7941;SDS011;4016;50.758;7.150;2024-02-26T00:06:44;3.30;;;2.20;;
7941;SDS011;4016;50.758;7.150;2024-02-26T00:11:44;1.97;;;1.80;;
7941;SDS011;4016;50.758;7.150;2024-02-26T00:16:44;2.40;;;2.20;;
7941;SDS011;4016;50.758;7.150;2024-02-26T00:21:45;2.03;;;1.90;;
7941;SDS011;4016;50.758;7.150;2024-02-26T00:26:45;2.60;;;1.90;;
7941;SDS011;4016;50.758;7.150;2024-02-26T00:31:46;2.37;;;2.03;;
7941;SDS011;4016;50.758;7.150;2024-02-26T00:36:46;2.37;;;2.17;;
7941;SDS011;4016;50.758;7.150;2024-02-26T00:41:46;2.07;;;1.87;;
7941;SDS011;4016;50.758;7.150;2024-02-26T00:46:47;2.00;;;1.87;;
7941;SDS011;4016;50.758;7.150;2024-02-26T00:51:47;2.33;;;2.20;;
7941;SDS011;4016;50.758;7.150;2024-02-26T00:56:48;3.93;;;2.10;;
7941;SDS011;4016;50.758;7.150;2024-02-26T01:01:48;2.10;;;1.90;;
7941;SDS011;4016;50.758;7.150;2024-02-26T01:06:48;2.50;;;2.00;;
7941;SDS011;4016;50.758;7.150;2024-02-26T01:11:49;2.80;;;1.33;;
7941;SDS011;4016;50.758;7.150;2024-02-26T01:16:49;2.13;;;1.53;;
7941;SDS011;4016;50.758;7.150;2024-02-26T01:21:49;1.67;;;1.57;;
7941;SDS011;4016;50.758;7.150;2024-02-26T01:26:50;1.93;;;1.83;;
7941;SDS011;4016;50.758;7.150;2024-02-26T01:31:50;2.03;;;1.67;;
7941;SDS011;4016;50.758;7.150;2024-02-26T01:36:50;2.80;;;2.40;;
7941;SDS011;4016;50.758;7.150;2024-02-26T01:41:51;2.23;;;2.03;;
7941;SDS011;4016;50.758;7.150;2024-02-26T01:46:51;1.43;;;1.33;;
7941;SDS011;4016;50.758;7.150;2024-02-26T01:51:53;1.53;;;1.43;;
7941;SDS011;4016;50.758;7.150;2024-02-26T01:56:53;2.00;;;1.80;;
7941;SDS011;4016;50.758;7.150;2024-02-26T02:01:54;1.70;;;1.60;;
7941;SDS011;4016;50.758;7.150;2024-02-26T02:06:57;3.87;;;2.10;;
7941;SDS011;4016;50.758;7.150;2024-02-26T02:12:00;1.90;;;1.80;;
7941;SDS011;4016;50.758;7.150;2024-02-26T02:17:00;2.50;;;2.30;;
7941;SDS011;4016;50.758;7.150;2024-02-26T02:22:01;1.83;;;1.73;;
7941;SDS011;4016;50.758;7.150;2024-02-26T02:27:01;1.70;;;1.60;;
7941;SDS011;4016;50.758;7.150;2024-02-26T02:32:01;1.60;;;1.50;;
7941;SDS011;4016;50.758;7.150;2024-02-26T02:37:03;2.30;;;1.90;;
7941;SDS011;4016;50.758;7.150;2024-02-26T02:42:04;1.50;;;1.40;;
7941;SDS011;4016;50.758;7.150;2024-02-26T02:47:05;3.33;;;1.73;;
7941;SDS011;4016;50.758;7.150;2024-02-26T02:52:05;2.73;;;1.63;;
7941;SDS011;4016;50.758;7.150;2024-02-26T02:57:06;1.60;;;1.50;;
7941;SDS011;4016;50.758;7.150;2024-02-26T03:02:06;1.60;;;1.50;;
7941;SDS011;4016;50.758;7.150;2024-02-26T03:07:06;1.90;;;1.80;;
7941;SDS011;4016;50.758;7.150;2024-02-26T03:12:07;1.53;;;1.43;;
7941;SDS011;4016;50.758;7.150;2024-02-26T03:17:07;4.67;;;2.00;;
7941;SDS011;4016;50.758;7.150;2024-02-26T03:22:08;2.13;;;1.93;;
7941;SDS011;4016;50.758;7.150;2024-02-26T03:27:08;1.53;;;1.43;;
7941;SDS011;4016;50.758;7.150;2024-02-26T03:32:09;1.73;;;1.60;;
7941;SDS011;4016;50.758;7.150;2024-02-26T03:37:09;2.40;;;2.20;;
7941;SDS011;4016;50.758;7.150;2024-02-26T03:42:10;2.80;;;1.73;;
7941;SDS011;4016;50.758;7.150;2024-02-26T03:47:11;2.20;;;2.00;;
7941;SDS011;4016;50.758;7.150;2024-02-26T03:52:11;2.40;;;2.20;;
7941;SDS011;4016;50.758;7.150;2024-02-26T03:57:11;2.10;;;1.90;;
7941;SDS011;4016;50.758;7.150;2024-02-26T04:02:12;1.97;;;1.87;;
7941;SDS011;4016;50.758;7.150;2024-02-26T04:07:12;2.27;;;1.70;;
7941;SDS011;4016;50.758;7.150;2024-02-26T04:12:13;2.07;;;1.97;;
7941;SDS011;4016;50.758;7.150;2024-02-26T04:17:14;1.50;;;1.40;;
7941;SDS011;4016;50.758;7.150;2024-02-26T04:22:14;1.77;;;1.67;;
7941;SDS011;4016;50.758;7.150;2024-02-26T04:27:15;1.63;;;1.53;;
7941;SDS011;4016;50.758;7.150;2024-02-26T04:32:15;2.77;;;2.27;;
7941;SDS011;4016;50.758;7.150;2024-02-26T04:37:15;1.93;;;1.83;;
7941;SDS011;4016;50.758;7.150;2024-02-26T04:42:16;2.20;;;2.00;;
7941;SDS011;4016;50.758;7.150;2024-02-26T04:47:16;2.30;;;1.90;;
7941;SDS011;4016;50.758;7.150;2024-02-26T04:52:17;2.13;;;1.93;;
7941;SDS011;4016;50.758;7.150;2024-02-26T04:57:17;2.17;;;1.97;;
7941;SDS011;4016;50.758;7.150;2024-02-26T05:02:18;1.70;;;1.60;;
7941;SDS011;4016;50.758;7.150;2024-02-26T05:07:18;2.47;;;2.27;;
7941;SDS011;4016;50.758;7.150;2024-02-26T05:12:19;2.20;;;2.00;;
7941;SDS011;4016;50.758;7.150;2024-02-26T05:17:19;2.53;;;2.33;;
7941;SDS011;4016;50.758;7.150;2024-02-26T05:22:20;2.20;;;2.00;;
7941;SDS011;4016;50.758;7.150;2024-02-26T05:27:20;2.70;;;2.03;;
7941;SDS011;4016;50.758;7.150;2024-02-26T05:32:20;2.80;;;2.43;;
7941;SDS011;4016;50.758;7.150;2024-02-26T05:37:21;2.90;;;2.37;;
7941;SDS011;4016;50.758;7.150;2024-02-26T05:42:21;1.90;;;1.80;;
7941;SDS011;4016;50.758;7.150;2024-02-26T05:47:21;2.30;;;2.10;;
7941;SDS011;4016;50.758;7.150;2024-02-26T05:52:22;2.13;;;1.93;;
7941;SDS011;4016;50.758;7.150;2024-02-26T05:57:22;2.47;;;2.20;;
7941;SDS011;4016;50.758;7.150;2024-02-26T06:02:23;3.00;;;2.27;;
7941;SDS011;4016;50.758;7.150;2024-02-26T06:07:23;3.90;;;2.80;;
7941;SDS011;4016;50.758;7.150;2024-02-26T06:12:24;2.27;;;2.13;;
7941;SDS011;4016;50.758;7.150;2024-02-26T06:17:24;3.60;;;2.20;;
7941;SDS011;4016;50.758;7.150;2024-02-26T06:22:25;3.53;;;2.70;;
7941;SDS011;4016;50.758;7.150;2024-02-26T06:27:26;3.07;;;2.60;;
7941;SDS011;4016;50.758;7.150;2024-02-26T06:32:26;2.97;;;2.50;;
7941;SDS011;4016;50.758;7.150;2024-02-26T06:37:28;3.97;;;3.00;;
7941;SDS011;4016;50.758;7.150;2024-02-26T06:42:29;3.30;;;3.00;;
7941;SDS011;4016;50.758;7.150;2024-02-26T06:47:30;3.33;;;2.73;;
7941;SDS011;4016;50.758;7.150;2024-02-26T06:52:30;3.33;;;3.03;;
7941;SDS011;4016;50.758;7.150;2024-02-26T06:57:31;4.73;;;2.60;;
7941;SDS011;4016;50.758;7.150;2024-02-26T07:02:31;3.07;;;2.77;;
7941;SDS011;4016;50.758;7.150;2024-02-26T07:07:31;3.80;;;3.10;;
7941;SDS011;4016;50.758;7.150;2024-02-26T07:12:32;4.40;;;3.20;;
7941;SDS011;4016;50.758;7.150;2024-02-26T07:17:32;3.43;;;2.90;;
7941;SDS011;4016;50.758;7.150;2024-02-26T07:22:34;4.67;;;3.00;;
7941;SDS011;4016;50.758;7.150;2024-02-26T07:27:35;3.30;;;2.87;;
7941;SDS011;4016;50.758;7.150;2024-02-26T07:32:35;4.03;;;3.00;;
7941;SDS011;4016;50.758;7.150;2024-02-26T07:37:36;5.40;;;3.10;;
7941;SDS011;4016;50.758;7.150;2024-02-26T07:42:36;3.43;;;3.13;;
7941;SDS011;4016;50.758;7.150;2024-02-26T07:47:36;3.10;;;2.80;;
7941;SDS011;4016;50.758;7.150;2024-02-26T07:52:40;3.43;;;2.90;;
7941;SDS011;4016;50.758;7.150;2024-02-26T07:57:44;3.93;;;3.03;;
7941;SDS011;4016;50.758;7.150;2024-02-26T08:02:44;3.43;;;2.83;;
7941;SDS011;4016;50.758;7.150;2024-02-26T08:07:44;3.73;;;2.80;;
7941;SDS011;4016;50.758;7.150;2024-02-26T08:12:45;3.33;;;3.03;;
7941;SDS011;4016;50.758;7.150;2024-02-26T08:17:45;4.90;;;2.93;;
7941;SDS011;4016;50.758;7.150;2024-02-26T08:22:47;3.57;;;2.73;;
7941;SDS011;4016;50.758;7.150;2024-02-26T08:27:47;2.57;;;2.37;;
7941;SDS011;4016;50.758;7.150;2024-02-26T08:32:48;2.93;;;2.53;;
7941;SDS011;4016;50.758;7.150;2024-02-26T08:37:49;3.30;;;2.87;;
7941;SDS011;4016;50.758;7.150;2024-02-26T08:42:49;2.93;;;2.70;;
7941;SDS011;4016;50.758;7.150;2024-02-26T08:49:46;3.33;;;2.90;;
7941;SDS011;4016;50.758;7.150;2024-02-26T08:54:46;4.47;;;3.10;;
7941;SDS011;4016;50.758;7.150;2024-02-26T08:59:47;3.77;;;3.33;;
7941;SDS011;4016;50.758;7.150;2024-02-26T09:04:47;4.00;;;3.27;;
7941;SDS011;4016;50.758;7.150;2024-02-26T09:09:48;4.87;;;3.43;;
7941;SDS011;4016;50.758;7.150;2024-02-26T09:14:48;5.17;;;3.57;;
7941;SDS011;4016;50.758;7.150;2024-02-26T09:19:48;3.30;;;2.70;;
7941;SDS011;4016;50.758;7.150;2024-02-26T09:24:49;3.83;;;3.13;;
7941;SDS011;4016;50.758;7.150;2024-02-26T09:29:51;3.50;;;3.20;;
7941;SDS011;4016;50.758;7.150;2024-02-26T09:34:51;3.77;;;3.20;;
7941;SDS011;4016;50.758;7.150;2024-02-26T09:39:52;6.03;;;3.97;;
7941;SDS011;4016;50.758;7.150;2024-02-26T09:44:55;4.10;;;3.37;;
7941;SDS011;4016;50.758;7.150;2024-02-26T09:49:57;4.03;;;3.33;;
7941;SDS011;4016;50.758;7.150;2024-02-26T09:55:00;3.40;;;3.10;;
7941;SDS011;4016;50.758;7.150;2024-02-26T10:00:00;5.27;;;3.80;;
7941;SDS011;4016;50.758;7.150;2024-02-26T10:05:05;3.77;;;3.10;;
7941;SDS011;4016;50.758;7.150;2024-02-26T10:10:10;4.33;;;3.13;;
7941;SDS011;4016;50.758;7.150;2024-02-26T10:15:10;4.83;;;3.53;;
7941;SDS011;4016;50.758;7.150;2024-02-26T10:20:14;3.77;;;3.10;;
7941;SDS011;4016;50.758;7.150;2024-02-26T10:25:17;3.87;;;3.23;;
7941;SDS011;4016;50.758;7.150;2024-02-26T10:30:19;4.60;;;3.40;;
7941;SDS011;4016;50.758;7.150;2024-02-26T10:35:21;4.77;;;3.10;;
7941;SDS011;4016;50.758;7.150;2024-02-26T10:40:21;5.00;;;3.50;;
7941;SDS011;4016;50.758;7.150;2024-02-26T10:45:21;3.77;;;3.33;;
7941;SDS011;4016;50.758;7.150;2024-02-26T10:50:22;3.63;;;3.30;;
7941;SDS011;4016;50.758;7.150;2024-02-26T10:55:22;4.20;;;3.40;;
7941;SDS011;4016;50.758;7.150;2024-02-26T11:00:23;4.90;;;3.00;;
7941;SDS011;4016;50.758;7.150;2024-02-26T11:05:24;3.57;;;3.10;;
7941;SDS011;4016;50.758;7.150;2024-02-26T11:10:25;3.27;;;2.93;;
7941;SDS011;4016;50.758;7.150;2024-02-26T11:15:28;3.80;;;3.30;;
7941;SDS011;4016;50.758;7.150;2024-02-26T11:20:29;3.90;;;3.50;;
7941;SDS011;4016;50.758;7.150;2024-02-26T11:25:31;4.00;;;3.20;;
7941;SDS011;4016;50.758;7.150;2024-02-26T11:30:31;3.83;;;3.43;;
7941;SDS011;4016;50.758;7.150;2024-02-26T11:35:37;4.17;;;3.40;;
7941;SDS011;4016;50.758;7.150;2024-02-26T11:40:38;4.13;;;3.40;;
7941;SDS011;4016;50.758;7.150;2024-02-26T11:50:42;3.87;;;3.43;;
7941;SDS011;4016;50.758;7.150;2024-02-26T11:55:47;3.37;;;3.07;;
7941;SDS011;4016;50.758;7.150;2024-02-26T12:00:48;3.77;;;3.47;;
7941;SDS011;4016;50.758;7.150;2024-02-26T12:05:48;4.10;;;3.70;;
7941;SDS011;4016;50.758;7.150;2024-02-26T12:10:49;5.97;;;4.37;;
7941;SDS011;4016;50.758;7.150;2024-02-26T12:20:59;4.20;;;3.47;;
7941;SDS011;4016;50.758;7.150;2024-02-26T12:26:01;4.00;;;3.57;;
7941;SDS011;4016;50.758;7.150;2024-02-26T12:31:02;4.50;;;3.60;;
7941;SDS011;4016;50.758;7.150;2024-02-26T12:36:04;5.97;;;3.93;;
7941;SDS011;4016;50.758;7.150;2024-02-26T12:41:05;3.53;;;3.23;;
7941;SDS011;4016;50.758;7.150;2024-02-26T12:46:06;4.23;;;3.50;;
7941;SDS011;4016;50.758;7.150;2024-02-26T12:51:07;3.50;;;3.20;;
7941;SDS011;4016;50.758;7.150;2024-02-26T12:56:08;4.00;;;3.57;;
7941;SDS011;4016;50.758;7.150;2024-02-26T13:01:13;4.70;;;3.53;;
7941;SDS011;4016;50.758;7.150;2024-02-26T13:06:17;5.93;;;3.30;;
7941;SDS011;4016;50.758;7.150;2024-02-26T13:11:18;5.60;;;3.60;;
7941;SDS011;4016;50.758;7.150;2024-02-26T13:16:19;4.50;;;3.70;;
7941;SDS011;4016;50.758;7.150;2024-02-26T13:21:19;5.23;;;3.60;;
7941;SDS011;4016;50.758;7.150;2024-02-26T13:26:22;5.33;;;3.40;;
7941;SDS011;4016;50.758;7.150;2024-02-26T13:31:24;4.37;;;3.50;;
7941;SDS011;4016;50.758;7.150;2024-02-26T13:36:24;4.60;;;3.70;;
7941;SDS011;4016;50.758;7.150;2024-02-26T13:41:25;4.10;;;3.60;;
7941;SDS011;4016;50.758;7.150;2024-02-26T13:46:26;3.70;;;3.30;;
7941;SDS011;4016;50.758;7.150;2024-02-26T13:51:26;3.93;;;3.53;;
7941;SDS011;4016;50.758;7.150;2024-02-26T13:56:27;5.07;;;3.93;;
7941;SDS011;4016;50.758;7.150;2024-02-26T14:01:27;4.07;;;3.47;;
7941;SDS011;4016;50.758;7.150;2024-02-26T14:06:28;5.57;;;3.93;;
7941;SDS011;4016;50.758;7.150;2024-02-26T14:11:29;3.97;;;3.53;;
7941;SDS011;4016;50.758;7.150;2024-02-26T14:16:29;4.70;;;4.00;;
7941;SDS011;4016;50.758;7.150;2024-02-26T14:21:29;5.33;;;4.10;;
7941;SDS011;4016;50.758;7.150;2024-02-26T14:26:30;5.30;;;4.17;;
7941;SDS011;4016;50.758;7.150;2024-02-26T14:31:30;4.87;;;4.00;;
7941;SDS011;4016;50.758;7.150;2024-02-26T14:36:31;5.27;;;4.10;;
7941;SDS011;4016;50.758;7.150;2024-02-26T14:41:31;5.33;;;3.83;;
7941;SDS011;4016;50.758;7.150;2024-02-26T14:46:31;6.33;;;3.80;;
7941;SDS011;4016;50.758;7.150;2024-02-26T14:51:32;6.17;;;4.20;;
7941;SDS011;4016;50.758;7.150;2024-02-26T14:56:32;5.17;;;4.47;;
7941;SDS011;4016;50.758;7.150;2024-02-26T15:01:33;4.87;;;4.20;;
7941;SDS011;4016;50.758;7.150;2024-02-26T15:06:33;4.40;;;4.00;;
7941;SDS011;4016;50.758;7.150;2024-02-26T15:11:37;4.83;;;3.83;;
7941;SDS011;4016;50.758;7.150;2024-02-26T15:16:39;4.77;;;4.30;;
7941;SDS011;4016;50.758;7.150;2024-02-26T15:21:43;5.33;;;4.43;;
7941;SDS011;4016;50.758;7.150;2024-02-26T15:26:45;6.00;;;5.33;;
7941;SDS011;4016;50.758;7.150;2024-02-26T15:31:45;6.17;;;4.50;;
7941;SDS011;4016;50.758;7.150;2024-02-26T15:36:46;6.60;;;5.07;;
7941;SDS011;4016;50.758;7.150;2024-02-26T15:41:46;6.03;;;5.10;;
7941;SDS011;4016;50.758;7.150;2024-02-26T15:46:46;5.63;;;5.07;;
7941;SDS011;4016;50.758;7.150;2024-02-26T15:51:47;6.90;;;5.03;;
7941;SDS011;4016;50.758;7.150;2024-02-26T15:56:47;5.57;;;4.87;;
7941;SDS011;4016;50.758;7.150;2024-02-26T16:01:47;6.30;;;5.17;;
7941;SDS011;4016;50.758;7.150;2024-02-26T16:06:49;5.90;;;5.03;;
7941;SDS011;4016;50.758;7.150;2024-02-26T16:11:54;6.03;;;5.20;;
7941;SDS011;4016;50.758;7.150;2024-02-26T16:17:07;7.17;;;5.60;;
7941;SDS011;4016;50.758;7.150;2024-02-26T16:22:16;6.03;;;5.00;;
7941;SDS011;4016;50.758;7.150;2024-02-26T16:27:16;5.97;;;5.07;;
7941;SDS011;4016;50.758;7.150;2024-02-26T16:32:16;5.60;;;5.00;;
7941;SDS011;4016;50.758;7.150;2024-02-26T16:37:17;6.43;;;5.47;;
7941;SDS011;4016;50.758;7.150;2024-02-26T16:42:18;7.83;;;6.30;;
7941;SDS011;4016;50.758;7.150;2024-02-26T16:47:19;8.10;;;5.87;;
7941;SDS011;4016;50.758;7.150;2024-02-26T16:52:19;6.93;;;6.20;;
7941;SDS011;4016;50.758;7.150;2024-02-26T16:57:19;9.83;;;7.23;;
7941;SDS011;4016;50.758;7.150;2024-02-26T17:02:21;8.70;;;6.40;;
7941;SDS011;4016;50.758;7.150;2024-02-26T17:07:22;9.33;;;7.73;;
7941;SDS011;4016;50.758;7.150;2024-02-26T17:12:22;8.97;;;7.30;;
7941;SDS011;4016;50.758;7.150;2024-02-26T17:17:22;10.20;;;7.53;;
7941;SDS011;4016;50.758;7.150;2024-02-26T17:22:23;7.63;;;6.83;;
7941;SDS011;4016;50.758;7.150;2024-02-26T17:27:25;9.00;;;7.00;;
7941;SDS011;4016;50.758;7.150;2024-02-26T17:32:25;8.73;;;7.30;;
7941;SDS011;4016;50.758;7.150;2024-02-26T17:37:26;9.73;;;7.20;;
7941;SDS011;4016;50.758;7.150;2024-02-26T17:42:26;9.53;;;7.57;;
7941;SDS011;4016;50.758;7.150;2024-02-26T17:47:27;10.50;;;9.00;;
7941;SDS011;4016;50.758;7.150;2024-02-26T17:52:27;10.23;;;8.60;;
7941;SDS011;4016;50.758;7.150;2024-02-26T17:57:27;11.10;;;8.57;;
7941;SDS011;4016;50.758;7.150;2024-02-26T18:02:28;11.30;;;9.27;;
7941;SDS011;4016;50.758;7.150;2024-02-26T18:07:29;11.60;;;9.30;;
7941;SDS011;4016;50.758;7.150;2024-02-26T18:12:29;13.53;;;10.33;;
7941;SDS011;4016;50.758;7.150;2024-02-26T18:17:30;12.43;;;10.47;;
7941;SDS011;4016;50.758;7.150;2024-02-26T18:22:31;15.53;;;10.93;;
7941;SDS011;4016;50.758;7.150;2024-02-26T18:27:31;13.40;;;10.37;;
7941;SDS011;4016;50.758;7.150;2024-02-26T18:32:34;13.30;;;11.00;;
7941;SDS011;4016;50.758;7.150;2024-02-26T18:37:34;15.43;;;12.63;;
7941;SDS011;4016;50.758;7.150;2024-02-26T18:42:35;14.47;;;12.30;;
7941;SDS011;4016;50.758;7.150;2024-02-26T18:47:37;15.57;;;12.50;;
7941;SDS011;4016;50.758;7.150;2024-02-26T18:52:38;15.43;;;11.97;;
7941;SDS011;4016;50.758;7.150;2024-02-26T18:57:39;18.87;;;14.13;;
7941;SDS011;4016;50.758;7.150;2024-02-26T19:02:41;15.90;;;12.73;;
7941;SDS011;4016;50.758;7.150;2024-02-26T19:07:41;14.03;;;12.17;;
7941;SDS011;4016;50.758;7.150;2024-02-26T19:12:42;15.13;;;11.27;;
7941;SDS011;4016;50.758;7.150;2024-02-26T19:17:44;17.03;;;12.93;;
7941;SDS011;4016;50.758;7.150;2024-02-26T19:22:48;16.07;;;11.43;;
7941;SDS011;4016;50.758;7.150;2024-02-26T19:27:48;20.70;;;13.80;;
7941;SDS011;4016;50.758;7.150;2024-02-26T19:32:49;14.67;;;12.00;;
7941;SDS011;4016;50.758;7.150;2024-02-26T19:37:49;14.20;;;10.93;;
7941;SDS011;4016;50.758;7.150;2024-02-26T19:42:51;13.20;;;10.83;;
7941;SDS011;4016;50.758;7.150;2024-02-26T19:47:51;12.73;;;10.73;;
7941;SDS011;4016;50.758;7.150;2024-02-26T19:52:52;16.40;;;11.83;;
7941;SDS011;4016;50.758;7.150;2024-02-26T19:57:52;13.77;;;11.00;;
7941;SDS011;4016;50.758;7.150;2024-02-26T20:02:54;13.47;;;10.53;;
7941;SDS011;4016;50.758;7.150;2024-02-26T20:07:54;12.70;;;10.57;;
7941;SDS011;4016;50.758;7.150;2024-02-26T20:12:54;13.20;;;10.37;;
7941;SDS011;4016;50.758;7.150;2024-02-26T20:17:59;13.60;;;10.47;;
7941;SDS011;4016;50.758;7.150;2024-02-26T20:23:00;11.40;;;9.63;;
7941;SDS011;4016;50.758;7.150;2024-02-26T20:28:00;13.00;;;9.83;;
7941;SDS011;4016;50.758;7.150;2024-02-26T20:33:01;12.13;;;9.73;;
7941;SDS011;4016;50.758;7.150;2024-02-26T20:38:01;10.77;;;9.57;;
7941;SDS011;4016;50.758;7.150;2024-02-26T20:43:02;12.90;;;10.87;;
7941;SDS011;4016;50.758;7.150;2024-02-26T20:48:02;10.27;;;9.27;;
7941;SDS011;4016;50.758;7.150;2024-02-26T20:53:03;12.90;;;9.97;;
7941;SDS011;4016;50.758;7.150;2024-02-26T20:58:03;10.23;;;9.03;;
7941;SDS011;4016;50.758;7.150;2024-02-26T21:03:04;11.53;;;10.33;;
7941;SDS011;4016;50.758;7.150;2024-02-26T21:08:09;11.17;;;10.07;;
7941;SDS011;4016;50.758;7.150;2024-02-26T21:13:10;12.17;;;10.93;;
7941;SDS011;4016;50.758;7.150;2024-02-26T21:18:10;11.67;;;10.47;;
7941;SDS011;4016;50.758;7.150;2024-02-26T21:23:10;12.03;;;10.83;;
7941;SDS011;4016;50.758;7.150;2024-02-26T21:28:12;14.73;;;10.67;;
7941;SDS011;4016;50.758;7.150;2024-02-26T21:33:12;12.03;;;10.77;;
7941;SDS011;4016;50.758;7.150;2024-02-26T21:38:13;15.07;;;11.20;;
7941;SDS011;4016;50.758;7.150;2024-02-26T21:43:13;13.47;;;11.57;;
7941;SDS011;4016;50.758;7.150;2024-02-26T21:48:14;12.53;;;11.33;;
7941;SDS011;4016;50.758;7.150;2024-02-26T21:53:14;13.73;;;11.83;;
7941;SDS011;4016;50.758;7.150;2024-02-26T21:58:14;14.13;;;11.33;;
7941;SDS011;4016;50.758;7.150;2024-02-26T22:03:15;13.63;;;10.80;;
7941;SDS011;4016;50.758;7.150;2024-02-26T22:08:15;10.97;;;9.87;;
7941;SDS011;4016;50.758;7.150;2024-02-26T22:13:16;11.50;;;9.50;;
7941;SDS011;4016;50.758;7.150;2024-02-26T22:18:16;13.37;;;10.50;;
7941;SDS011;4016;50.758;7.150;2024-02-26T22:23:17;11.17;;;9.40;;
7941;SDS011;4016;50.758;7.150;2024-02-26T22:28:17;11.27;;;9.27;;
7941;SDS011;4016;50.758;7.150;2024-02-26T22:33:17;12.97;;;9.63;;
7941;SDS011;4016;50.758;7.150;2024-02-26T22:38:18;10.13;;;9.03;;
7941;SDS011;4016;50.758;7.150;2024-02-26T22:43:20;12.37;;;9.50;;
7941;SDS011;4016;50.758;7.150;2024-02-26T22:48:20;12.07;;;8.80;;
7941;SDS011;4016;50.758;7.150;2024-02-26T22:53:22;10.20;;;9.07;;
7941;SDS011;4016;50.758;7.150;2024-02-26T22:58:22;9.83;;;8.83;;
7941;SDS011;4016;50.758;7.150;2024-02-26T23:03:22;10.43;;;8.83;;
7941;SDS011;4016;50.758;7.150;2024-02-26T23:08:23;10.10;;;8.63;;
7941;SDS011;4016;50.758;7.150;2024-02-26T23:13:23;10.27;;;8.10;;
7941;SDS011;4016;50.758;7.150;2024-02-26T23:18:23;12.47;;;7.27;;
7941;SDS011;4016;50.758;7.150;2024-02-26T23:23:24;9.47;;;7.43;;
7941;SDS011;4016;50.758;7.150;2024-02-26T23:28:24;9.53;;;7.60;;
7941;SDS011;4016;50.758;7.150;2024-02-26T23:33:25;9.80;;;7.43;;
7941;SDS011;4016;50.758;7.150;2024-02-26T23:38:25;9.10;;;6.73;;
7941;SDS011;4016;50.758;7.150;2024-02-26T23:43:25;8.00;;;7.20;;
7941;SDS011;4016;50.758;7.150;2024-02-26T23:48:26;7.87;;;7.07;;
7941;SDS011;4016;50.758;7.150;2024-02-26T23:53:26;8.77;;;7.80;;
7941;SDS011;4016;50.758;7.150;2024-02-26T23:58:26;8.43;;;7.13;;
